createdAt,value
2019-05-18T00:00:17.482Z,28.85
2019-05-18T00:00:50.125Z,29.40
2019-05-18T00:01:22.771Z,31.73
2019-05-18T00:01:55.396Z,30.48
2019-05-18T00:02:28.030Z,33.08
2019-05-18T00:03:00.669Z,33.18
2019-05-18T00:03:33.777Z,32.70
2019-05-18T00:04:06.433Z,30.00
2019-05-18T00:04:39.398Z,31.73
2019-05-18T00:05:12.391Z,31.62
2019-05-18T00:05:45.018Z,30.75
2019-05-18T00:06:17.813Z,31.27
2019-05-18T00:06:50.451Z,30.32
2019-05-18T00:07:23.100Z,29.82
2019-05-18T00:07:55.844Z,30.88
2019-05-18T00:08:29.258Z,30.85
2019-05-18T00:09:02.260Z,30.92
2019-05-18T00:09:35.643Z,31.80
2019-05-18T00:10:09.471Z,29.72
2019-05-18T00:10:42.240Z,29.60
2019-05-18T00:11:14.875Z,30.12
2019-05-18T00:11:47.498Z,31.50
2019-05-18T00:12:20.529Z,32.10
2019-05-18T00:12:53.180Z,31.15
2019-05-18T00:13:26.347Z,31.60
2019-05-18T00:13:59.033Z,32.25
2019-05-18T00:14:31.687Z,29.65
2019-05-18T00:15:04.695Z,30.12
2019-05-18T00:15:37.671Z,28.70
2019-05-18T00:16:10.810Z,32.15
2019-05-18T00:16:43.779Z,29.67
2019-05-18T00:17:25.077Z,30.62
2019-05-18T00:17:50.846Z,30.80
2019-05-18T00:18:23.487Z,30.25
2019-05-18T00:18:56.131Z,30.88
2019-05-18T00:19:28.749Z,34.15
2019-05-18T00:20:01.398Z,30.35
2019-05-18T00:20:35.115Z,28.98
2019-05-18T00:21:07.731Z,30.68
2019-05-18T00:21:40.733Z,29.72
2019-05-18T00:22:13.857Z,31.68
2019-05-18T00:22:46.892Z,31.55
2019-05-18T00:23:19.974Z,30.68
2019-05-18T00:23:52.603Z,32.93
2019-05-18T00:24:25.252Z,33.33
2019-05-18T00:24:58.687Z,31.37
2019-05-18T00:25:31.610Z,31.07
2019-05-18T00:26:04.259Z,30.12
2019-05-18T00:26:36.882Z,31.55
2019-05-18T00:27:09.556Z,31.30
2019-05-18T00:27:42.211Z,29.92
2019-05-18T00:28:14.857Z,31.40
2019-05-18T00:28:47.861Z,29.98
2019-05-18T00:29:20.855Z,28.83
2019-05-18T00:29:53.486Z,30.97
2019-05-18T00:30:26.253Z,31.02
2019-05-18T00:30:58.879Z,29.42
2019-05-18T00:31:31.526Z,29.20
2019-05-18T00:32:04.395Z,30.50
2019-05-18T00:32:37.132Z,30.80
2019-05-18T00:33:10.212Z,31.55
2019-05-18T00:33:42.839Z,30.20
2019-05-18T00:34:15.474Z,29.98
2019-05-18T00:34:48.511Z,31.68
2019-05-18T00:35:21.165Z,28.83
2019-05-18T00:35:53.806Z,29.52
2019-05-18T00:36:26.507Z,31.48
2019-05-18T00:36:59.122Z,30.15
2019-05-18T00:37:32.090Z,30.57
2019-05-18T00:38:04.796Z,31.97
2019-05-18T00:38:38.723Z,28.40
2019-05-18T00:39:11.330Z,31.07
2019-05-18T00:39:44.352Z,30.65
2019-05-18T00:40:17.399Z,31.77
2019-05-18T00:40:50.522Z,31.40
2019-05-18T00:41:23.169Z,30.95
2019-05-18T00:41:56.178Z,29.25
2019-05-18T00:42:28.842Z,30.25
2019-05-18T00:43:01.459Z,30.72
2019-05-18T00:43:34.130Z,30.88
2019-05-18T00:44:06.767Z,31.35
2019-05-18T00:44:39.390Z,29.63
2019-05-18T00:45:12.495Z,32.15
2019-05-18T00:45:45.194Z,29.60
2019-05-18T00:46:17.782Z,29.32
2019-05-18T00:46:50.420Z,29.37
2019-05-18T00:47:23.816Z,27.75
2019-05-18T00:47:56.468Z,29.40
2019-05-18T00:48:29.489Z,28.20
2019-05-18T00:49:02.230Z,29.67
2019-05-18T00:49:34.862Z,30.55
2019-05-18T00:50:08.096Z,28.25
2019-05-18T00:50:40.731Z,30.92
2019-05-18T00:51:13.376Z,29.40
2019-05-18T00:51:46.334Z,28.83
2019-05-18T00:52:18.964Z,29.55
2019-05-18T00:52:51.599Z,31.23
2019-05-18T00:53:24.576Z,30.52
2019-05-18T00:53:57.890Z,31.82
2019-05-18T00:54:30.566Z,30.25
2019-05-18T00:55:03.698Z,31.62
2019-05-18T00:55:36.670Z,29.98
2019-05-18T00:56:09.299Z,30.50
2019-05-18T00:56:41.950Z,32.15
2019-05-18T00:57:14.624Z,31.00
2019-05-18T00:57:47.263Z,30.02
2019-05-18T00:58:19.890Z,32.08
2019-05-18T00:58:52.681Z,29.90
2019-05-18T00:59:25.489Z,28.52
2019-05-18T00:59:58.506Z,28.67
2019-05-18T01:00:31.478Z,28.95
2019-05-18T01:01:04.304Z,30.45
2019-05-18T01:01:36.928Z,32.08
2019-05-18T01:02:09.884Z,31.82
2019-05-18T01:02:42.863Z,31.30
2019-05-18T01:03:15.862Z,31.35
2019-05-18T01:03:48.503Z,31.12
2019-05-18T01:04:21.155Z,32.42
2019-05-18T01:04:53.798Z,31.97
2019-05-18T01:05:26.859Z,31.20
2019-05-18T01:05:59.839Z,30.80
2019-05-18T01:06:32.492Z,32.15
2019-05-18T01:07:05.108Z,27.90
2019-05-18T01:07:37.777Z,27.95
2019-05-18T01:08:10.751Z,27.30
2019-05-18T01:08:44.280Z,27.48
2019-05-18T01:09:17.216Z,30.30
2019-05-18T01:09:50.083Z,29.80
2019-05-18T01:10:23.450Z,29.27
2019-05-18T01:10:56.371Z,30.65
2019-05-18T01:11:29.265Z,29.80
2019-05-18T01:12:02.171Z,30.15
2019-05-18T01:12:35.052Z,29.37
2019-05-18T01:13:07.963Z,29.60
2019-05-18T01:13:40.869Z,30.80
2019-05-18T01:14:13.783Z,31.02
2019-05-18T01:14:47.252Z,29.23
2019-05-18T01:15:21.294Z,26.02
2019-05-18T01:15:54.884Z,25.23
2019-05-18T01:16:29.490Z,25.90
2019-05-18T01:17:02.779Z,26.17
2019-05-18T01:17:35.666Z,28.40
2019-05-18T01:18:08.746Z,26.33
2019-05-18T01:18:41.671Z,27.82
2019-05-18T01:19:14.568Z,27.25
2019-05-18T01:19:47.813Z,26.52
2019-05-18T01:20:21.330Z,26.62
2019-05-18T01:20:54.572Z,26.35
2019-05-18T01:21:27.447Z,26.10
2019-05-18T01:22:00.388Z,25.95
2019-05-18T01:22:33.375Z,24.92
2019-05-18T01:23:06.272Z,27.55
2019-05-18T01:23:39.182Z,24.57
2019-05-18T01:24:12.052Z,25.17
2019-05-18T01:24:45.382Z,25.37
2019-05-18T01:25:18.501Z,26.97
2019-05-18T01:25:51.369Z,26.40
2019-05-18T01:26:24.240Z,26.90
2019-05-18T01:26:57.144Z,26.87
2019-05-18T01:27:30.385Z,27.90
2019-05-18T01:28:04.044Z,29.40
2019-05-18T01:28:37.013Z,27.55
2019-05-18T01:29:09.994Z,26.62
2019-05-18T01:29:42.859Z,26.35
2019-05-18T01:30:16.194Z,27.60
2019-05-18T01:30:49.184Z,29.32
2019-05-18T01:31:22.089Z,26.65
2019-05-18T01:31:55.014Z,27.10
2019-05-18T01:32:28.065Z,27.82
2019-05-18T01:33:01.483Z,27.50
2019-05-18T01:33:34.364Z,28.10
2019-05-18T01:34:07.594Z,28.02
2019-05-18T01:34:40.510Z,29.80
2019-05-18T01:35:13.496Z,28.87
2019-05-18T01:35:47.129Z,30.57
2019-05-18T01:36:20.534Z,30.32
2019-05-18T01:36:53.545Z,32.28
2019-05-18T01:37:26.968Z,32.55
2019-05-18T01:37:59.877Z,32.58
2019-05-18T01:38:32.803Z,31.93
2019-05-18T01:39:06.688Z,32.08
2019-05-18T01:39:40.130Z,32.70
2019-05-18T01:40:14.143Z,31.33
2019-05-18T01:40:47.358Z,32.60
2019-05-18T01:41:20.270Z,30.95
2019-05-18T01:41:53.153Z,31.95
2019-05-18T01:42:26.040Z,32.53
2019-05-18T01:42:58.921Z,31.93
2019-05-18T01:43:31.767Z,29.63
2019-05-18T01:44:05.003Z,29.90
2019-05-18T01:44:38.218Z,29.42
2019-05-18T01:45:16.896Z,31.45
2019-05-18T01:45:46.715Z,29.20
2019-05-18T01:46:19.604Z,29.48
2019-05-18T01:46:52.816Z,29.20
2019-05-18T01:47:25.675Z,29.40
2019-05-18T01:48:12.658Z,29.12
2019-05-18T01:48:33.238Z,29.50
2019-05-18T01:49:06.101Z,28.10
2019-05-18T01:49:39.664Z,26.85
2019-05-18T01:50:13.186Z,27.05
2019-05-18T01:50:46.086Z,26.55
2019-05-18T01:51:18.943Z,26.97
2019-05-18T01:51:52.032Z,26.25
2019-05-18T01:52:25.284Z,24.72
2019-05-18T01:52:58.516Z,24.50
2019-05-18T01:53:31.396Z,24.90
2019-05-18T01:54:04.360Z,25.97
2019-05-18T01:54:37.237Z,26.73
2019-05-18T01:55:10.458Z,28.05
2019-05-18T01:55:43.359Z,26.95
2019-05-18T01:56:16.966Z,28.35
2019-05-18T01:56:49.835Z,28.47
2019-05-18T01:57:23.045Z,28.42
2019-05-18T01:57:56.268Z,29.57
2019-05-18T01:58:29.144Z,28.45
2019-05-18T01:59:01.983Z,28.12
2019-05-18T01:59:34.860Z,29.65
2019-05-18T02:00:08.874Z,29.27
2019-05-18T02:00:41.749Z,29.42
2019-05-18T02:01:14.585Z,29.87
2019-05-18T02:01:47.439Z,30.48
2019-05-18T02:02:20.753Z,30.08
2019-05-18T02:02:53.679Z,30.85
2019-05-18T02:03:26.343Z,30.00
2019-05-18T02:03:59.248Z,31.20
2019-05-18T02:04:31.899Z,28.98
2019-05-18T02:05:05.051Z,30.52
2019-05-18T02:05:38.021Z,30.20
2019-05-18T02:06:11.145Z,30.68
2019-05-18T02:06:44.113Z,29.25
2019-05-18T02:07:16.897Z,30.85
2019-05-18T02:07:49.539Z,30.45
2019-05-18T02:08:22.939Z,29.80
2019-05-18T02:08:55.574Z,31.07
2019-05-18T02:09:28.217Z,30.97
2019-05-18T02:10:00.965Z,30.37
2019-05-18T02:10:33.908Z,31.12
2019-05-18T02:11:07.866Z,30.05
2019-05-18T02:11:40.852Z,30.08
2019-05-18T02:12:13.887Z,29.75
2019-05-18T02:12:46.515Z,30.05
2019-05-18T02:13:19.532Z,32.13
2019-05-18T02:13:52.178Z,30.10
2019-05-18T02:14:24.822Z,29.02
2019-05-18T02:14:57.469Z,28.23
2019-05-18T02:15:30.139Z,27.20
2019-05-18T02:16:02.782Z,27.13
2019-05-18T02:16:35.425Z,24.20
2019-05-18T02:17:08.114Z,28.47
2019-05-18T02:17:40.781Z,28.00
2019-05-18T02:18:26.905Z,25.68
2019-05-18T02:18:48.282Z,27.25
2019-05-18T02:19:20.986Z,26.48
2019-05-18T02:19:53.622Z,26.90
2019-05-18T02:20:26.575Z,25.77
2019-05-18T02:20:59.207Z,25.62
2019-05-18T02:21:32.250Z,29.30
2019-05-18T02:22:05.042Z,29.00
2019-05-18T02:22:38.391Z,30.48
2019-05-18T02:23:11.036Z,28.38
2019-05-18T02:23:43.686Z,29.87
2019-05-18T02:24:16.667Z,27.45
2019-05-18T02:24:49.302Z,28.95
2019-05-18T02:25:22.329Z,29.75
2019-05-18T02:25:54.976Z,29.52
2019-05-18T02:26:27.615Z,28.85
2019-05-18T02:27:00.268Z,29.72
2019-05-18T02:27:32.904Z,28.12
2019-05-18T02:28:06.781Z,27.07
2019-05-18T02:28:39.732Z,26.52
2019-05-18T02:29:12.374Z,26.70
2019-05-18T02:29:45.019Z,25.82
2019-05-18T02:30:18.081Z,24.57
2019-05-18T02:30:50.725Z,25.43
2019-05-18T02:31:24.110Z,26.00
2019-05-18T02:31:56.751Z,25.00
2019-05-18T02:32:29.406Z,27.13
2019-05-18T02:33:02.047Z,27.32
2019-05-18T02:33:34.722Z,27.07
2019-05-18T02:34:07.371Z,26.52
2019-05-18T02:34:40.005Z,25.77
2019-05-18T02:35:12.797Z,27.15
2019-05-18T02:35:45.442Z,27.67
2019-05-18T02:36:18.110Z,27.13
2019-05-18T02:36:51.095Z,26.15
2019-05-18T02:37:23.729Z,25.10
2019-05-18T02:38:13.551Z,24.32
2019-05-18T02:38:46.253Z,25.23
2019-05-18T02:39:18.978Z,24.57
2019-05-18T02:39:54.283Z,23.95
2019-05-18T02:40:27.256Z,26.77
2019-05-18T02:40:59.901Z,24.92
2019-05-18T02:41:32.886Z,27.02
2019-05-18T02:42:05.544Z,27.22
2019-05-18T02:42:38.540Z,23.87
2019-05-18T02:43:11.182Z,24.85
2019-05-18T02:43:44.168Z,23.92
2019-05-18T02:44:17.249Z,26.33
2019-05-18T02:44:49.882Z,26.93
2019-05-18T02:45:22.539Z,26.85
2019-05-18T02:45:55.186Z,25.20
2019-05-18T02:46:27.838Z,24.65
2019-05-18T02:47:01.182Z,25.62
2019-05-18T02:47:33.832Z,24.82
2019-05-18T02:48:06.592Z,22.48
2019-05-18T02:48:49.754Z,22.93
2019-05-18T02:49:13.647Z,20.32
2019-05-18T02:49:46.314Z,20.43
2019-05-18T02:50:19.647Z,20.65
2019-05-18T02:50:52.279Z,19.60
2019-05-18T02:51:24.920Z,21.45
2019-05-18T02:51:57.581Z,20.72
2019-05-18T02:52:30.211Z,17.82
2019-05-18T02:53:02.981Z,18.80
2019-05-18T02:53:36.029Z,17.37
2019-05-18T02:54:08.640Z,17.75
2019-05-18T02:54:41.275Z,16.97
2019-05-18T02:55:13.934Z,15.98
2019-05-18T02:55:46.594Z,16.05
2019-05-18T02:56:19.684Z,15.18
2019-05-18T02:56:52.647Z,16.52
2019-05-18T02:57:25.630Z,18.25
2019-05-18T02:57:58.600Z,16.57
2019-05-18T02:58:31.250Z,17.20
2019-05-18T02:59:04.544Z,16.27
2019-05-18T02:59:37.170Z,16.52
2019-05-18T03:00:10.223Z,16.45
2019-05-18T03:00:42.909Z,17.23
2019-05-18T03:01:15.855Z,16.93
2019-05-18T03:01:48.847Z,18.52
2019-05-18T03:02:21.479Z,15.58
2019-05-18T03:02:54.128Z,17.15
2019-05-18T03:03:26.768Z,17.82
2019-05-18T03:04:00.075Z,16.12
2019-05-18T03:04:32.700Z,14.75
2019-05-18T03:05:05.531Z,15.10
2019-05-18T03:05:38.171Z,14.60
2019-05-18T03:06:10.838Z,14.83
2019-05-18T03:06:43.742Z,14.53
2019-05-18T03:07:16.376Z,14.40
2019-05-18T03:07:49.424Z,13.60
2019-05-18T03:08:22.057Z,12.18
2019-05-18T03:08:54.702Z,13.70
2019-05-18T03:09:27.337Z,13.10
2019-05-18T03:09:59.983Z,14.75
2019-05-18T03:10:32.621Z,12.70
2019-05-18T03:11:05.257Z,13.20
2019-05-18T03:11:37.938Z,12.55
2019-05-18T03:12:10.964Z,12.78
2019-05-18T03:12:43.597Z,13.08
2019-05-18T03:13:16.608Z,13.88
2019-05-18T03:13:49.376Z,12.90
2019-05-18T03:14:22.040Z,14.30
2019-05-18T03:14:54.697Z,14.60
2019-05-18T03:15:27.434Z,15.48
2019-05-18T03:16:00.071Z,13.45
2019-05-18T03:16:33.512Z,15.32
2019-05-18T03:17:06.682Z,16.55
2019-05-18T03:17:39.319Z,16.40
2019-05-18T03:18:12.167Z,16.30
2019-05-18T03:18:44.783Z,15.72
2019-05-18T03:19:17.800Z,15.80
2019-05-18T03:19:50.452Z,15.23
2019-05-18T03:20:23.429Z,15.50
2019-05-18T03:20:56.068Z,15.75
2019-05-18T03:21:29.217Z,16.40
2019-05-18T03:22:01.868Z,16.48
2019-05-18T03:22:34.659Z,17.73
2019-05-18T03:23:07.284Z,16.60
2019-05-18T03:23:40.314Z,15.80
2019-05-18T03:24:12.964Z,13.90
2019-05-18T03:24:45.945Z,16.20
2019-05-18T03:25:18.611Z,15.70
2019-05-18T03:25:51.252Z,14.83
2019-05-18T03:26:24.227Z,16.32
2019-05-18T03:26:56.861Z,15.35
2019-05-18T03:27:29.491Z,15.80
2019-05-18T03:28:02.183Z,17.40
2019-05-18T03:28:35.458Z,17.60
2019-05-18T03:29:08.143Z,16.32
2019-05-18T03:29:40.758Z,17.98
2019-05-18T03:30:14.164Z,17.80
2019-05-18T03:30:47.151Z,18.05
2019-05-18T03:31:19.799Z,17.95
2019-05-18T03:31:52.452Z,18.90
2019-05-18T03:32:25.096Z,18.65
2019-05-18T03:32:57.732Z,17.82
2019-05-18T03:33:30.856Z,20.20
2019-05-18T03:34:03.687Z,18.80
2019-05-18T03:34:36.300Z,19.75
2019-05-18T03:35:09.053Z,17.40
2019-05-18T03:35:41.693Z,17.65
2019-05-18T03:36:14.344Z,19.87
2019-05-18T03:36:47.695Z,18.32
2019-05-18T03:37:20.646Z,19.80
2019-05-18T03:37:53.664Z,20.00
2019-05-18T03:38:26.961Z,19.82
2019-05-18T03:38:59.635Z,18.25
2019-05-18T03:39:32.938Z,18.50
2019-05-18T03:40:06.577Z,18.82
2019-05-18T03:40:39.216Z,18.55
2019-05-18T03:41:12.151Z,19.20
2019-05-18T03:41:45.124Z,18.42
2019-05-18T03:42:18.099Z,18.02
2019-05-18T03:42:50.725Z,20.20
2019-05-18T03:43:23.749Z,20.60
2019-05-18T03:43:56.505Z,20.37
2019-05-18T03:44:29.164Z,20.62
2019-05-18T03:45:01.858Z,18.45
2019-05-18T03:45:34.799Z,19.95
2019-05-18T03:46:08.448Z,19.30
2019-05-18T03:46:41.830Z,20.30
2019-05-18T03:47:14.817Z,20.15
2019-05-18T03:47:47.463Z,19.30
2019-05-18T03:48:20.448Z,20.05
2019-05-18T03:48:53.083Z,19.00
2019-05-18T03:49:27.639Z,18.17
2019-05-18T03:50:00.210Z,19.30
2019-05-18T03:50:32.867Z,19.40
2019-05-18T03:51:06.123Z,19.15
2019-05-18T03:51:38.757Z,19.35
2019-05-18T03:52:11.396Z,18.62
2019-05-18T03:52:44.023Z,19.57
2019-05-18T03:53:18.289Z,18.17
2019-05-18T03:53:52.015Z,18.82
2019-05-18T03:54:24.668Z,18.75
2019-05-18T03:54:57.659Z,18.60
2019-05-18T03:55:30.555Z,16.10
2019-05-18T03:56:03.197Z,14.00
2019-05-18T03:56:35.834Z,15.90
2019-05-18T03:57:08.864Z,15.00
2019-05-18T03:57:42.334Z,13.75
2019-05-18T03:58:15.252Z,14.78
2019-05-18T03:58:48.261Z,13.72
2019-05-18T03:59:20.908Z,13.88
2019-05-18T03:59:53.549Z,14.15
2019-05-18T04:00:26.226Z,14.10
2019-05-18T04:00:59.609Z,13.88
2019-05-18T04:01:32.246Z,13.22
2019-05-18T04:02:04.886Z,13.58
2019-05-18T04:02:37.593Z,15.70
2019-05-18T04:03:10.191Z,13.50
2019-05-18T04:03:43.143Z,14.75
2019-05-18T04:04:18.439Z,15.45
2019-05-18T04:04:50.575Z,15.45
2019-05-18T04:05:23.576Z,14.10
2019-05-18T04:05:56.507Z,15.68
2019-05-18T04:06:29.191Z,14.45
2019-05-18T04:07:01.832Z,16.12
2019-05-18T04:07:34.472Z,15.53
2019-05-18T04:08:07.769Z,16.45
2019-05-18T04:08:40.721Z,15.18
2019-05-18T04:09:13.831Z,14.73
2019-05-18T04:09:46.855Z,15.78
2019-05-18T04:10:26.462Z,15.43
2019-05-18T04:10:59.090Z,15.88
2019-05-18T04:11:32.168Z,16.32
2019-05-18T04:12:05.222Z,16.80
2019-05-18T04:12:37.871Z,17.10
2019-05-18T04:13:10.519Z,16.73
2019-05-18T04:13:43.555Z,16.30
2019-05-18T04:14:16.205Z,16.27
2019-05-18T04:14:48.848Z,17.98
2019-05-18T04:15:21.490Z,17.82
2019-05-18T04:15:54.141Z,15.10
2019-05-18T04:16:26.765Z,17.12
2019-05-18T04:16:59.741Z,16.77
2019-05-18T04:17:32.389Z,16.12
2019-05-18T04:18:05.287Z,16.80
2019-05-18T04:18:37.952Z,15.20
2019-05-18T04:19:11.441Z,16.60
2019-05-18T04:19:46.762Z,15.35
2019-05-18T04:20:18.691Z,15.50
2019-05-18T04:20:51.362Z,15.65
2019-05-18T04:21:26.818Z,15.55
2019-05-18T04:21:59.457Z,16.87
2019-05-18T04:22:32.761Z,17.92
2019-05-18T04:23:05.482Z,16.40
2019-05-18T04:23:38.122Z,16.27
2019-05-18T04:24:10.791Z,16.17
2019-05-18T04:24:43.432Z,17.00
2019-05-18T04:25:16.479Z,16.82
2019-05-18T04:25:49.123Z,17.17
2019-05-18T04:26:21.774Z,18.27
2019-05-18T04:26:54.424Z,17.73
2019-05-18T04:27:27.081Z,18.30
2019-05-18T04:27:59.799Z,16.80
2019-05-18T04:28:32.489Z,17.27
2019-05-18T04:29:05.170Z,16.15
2019-05-18T04:29:37.818Z,15.65
2019-05-18T04:30:11.161Z,16.97
2019-05-18T04:30:44.120Z,17.57
2019-05-18T04:31:17.142Z,17.82
2019-05-18T04:31:49.784Z,16.90
2019-05-18T04:32:22.428Z,17.75
2019-05-18T04:32:55.443Z,16.12
2019-05-18T04:33:28.517Z,18.48
2019-05-18T04:34:01.240Z,18.15
2019-05-18T04:34:33.879Z,18.87
2019-05-18T04:35:06.923Z,18.60
2019-05-18T04:35:39.848Z,19.17
2019-05-18T04:36:12.937Z,18.02
2019-05-18T04:36:45.582Z,18.85
2019-05-18T04:37:18.623Z,18.00
2019-05-18T04:37:51.567Z,18.92
2019-05-18T04:38:24.220Z,19.42
2019-05-18T04:38:56.908Z,18.27
2019-05-18T04:39:29.830Z,18.07
2019-05-18T04:40:02.505Z,16.85
2019-05-18T04:40:35.451Z,19.07
2019-05-18T04:41:08.415Z,19.00
2019-05-18T04:41:41.054Z,18.15
2019-05-18T04:42:14.011Z,17.80
2019-05-18T04:42:46.713Z,18.85
2019-05-18T04:43:19.346Z,19.27
2019-05-18T04:43:52.274Z,17.42
2019-05-18T04:44:24.956Z,17.42
2019-05-18T04:44:57.581Z,17.70
2019-05-18T04:45:30.388Z,18.10
2019-05-18T04:46:03.033Z,18.07
2019-05-18T04:46:36.055Z,18.90
2019-05-18T04:47:08.709Z,17.75
2019-05-18T04:47:41.676Z,17.80
2019-05-18T04:48:14.323Z,17.48
2019-05-18T04:48:47.291Z,18.60
2019-05-18T04:49:20.217Z,19.90
2019-05-18T04:50:04.513Z,20.88
2019-05-18T04:50:27.663Z,21.95
2019-05-18T04:51:00.311Z,21.02
2019-05-18T04:51:33.013Z,19.52
2019-05-18T04:52:06.067Z,18.70
2019-05-18T04:52:38.733Z,20.92
2019-05-18T04:53:11.383Z,19.02
2019-05-18T04:53:44.007Z,19.23
2019-05-18T04:54:16.668Z,21.00
2019-05-18T04:54:49.663Z,21.52
2019-05-18T04:55:22.342Z,19.73
2019-05-18T04:55:55.000Z,20.45
2019-05-18T04:56:27.640Z,20.20
2019-05-18T04:57:00.263Z,21.27
2019-05-18T04:57:32.899Z,19.90
2019-05-18T04:58:05.548Z,20.00
2019-05-18T04:58:38.526Z,21.37
2019-05-18T04:59:11.978Z,21.45
2019-05-18T04:59:44.618Z,20.43
2019-05-18T05:00:17.413Z,20.90
2019-05-18T05:00:50.242Z,20.15
2019-05-18T05:01:23.283Z,19.75
2019-05-18T05:01:55.942Z,20.15
2019-05-18T05:02:29.008Z,21.20
2019-05-18T05:03:01.657Z,22.35
2019-05-18T05:03:34.282Z,19.98
2019-05-18T05:04:06.956Z,22.42
2019-05-18T05:04:39.899Z,22.30
2019-05-18T05:05:12.878Z,21.48
2019-05-18T05:05:45.539Z,23.10
2019-05-18T05:06:18.224Z,22.15
2019-05-18T05:06:50.847Z,23.77
2019-05-18T05:07:23.507Z,20.70
2019-05-18T05:07:56.741Z,22.67
2019-05-18T05:08:29.674Z,22.27
2019-05-18T05:09:02.803Z,22.27
2019-05-18T05:09:35.441Z,23.95
2019-05-18T05:10:08.264Z,23.27
2019-05-18T05:10:41.199Z,23.40
2019-05-18T05:11:14.127Z,21.27
2019-05-18T05:11:46.822Z,21.42
2019-05-18T05:12:19.473Z,23.67
2019-05-18T05:12:52.111Z,22.07
2019-05-18T05:13:24.733Z,21.87
2019-05-18T05:13:57.407Z,22.67
2019-05-18T05:14:30.354Z,23.90
2019-05-18T05:15:03.355Z,25.08
2019-05-18T05:15:35.992Z,26.75
2019-05-18T05:16:08.637Z,25.60
2019-05-18T05:16:41.287Z,25.75
2019-05-18T05:17:14.254Z,26.10
2019-05-18T05:17:46.918Z,25.48
2019-05-18T05:18:19.974Z,26.10
2019-05-18T05:18:52.700Z,25.02
2019-05-18T05:19:25.696Z,25.60
2019-05-18T05:19:58.983Z,26.48
2019-05-18T05:20:31.623Z,27.02
2019-05-18T05:21:04.598Z,25.85
2019-05-18T05:21:37.876Z,25.85
2019-05-18T05:22:10.546Z,27.00
2019-05-18T05:22:43.226Z,27.05
2019-05-18T05:23:15.870Z,29.45
2019-05-18T05:23:48.543Z,28.60
2019-05-18T05:24:21.531Z,26.02
2019-05-18T05:24:54.497Z,28.65
2019-05-18T05:25:28.556Z,28.20
2019-05-18T05:26:04.419Z,28.25
2019-05-18T05:26:39.599Z,26.80
2019-05-18T05:27:13.495Z,29.25
2019-05-18T05:27:46.264Z,26.75
2019-05-18T05:28:19.401Z,27.95
2019-05-18T05:28:52.055Z,27.22
2019-05-18T05:29:25.033Z,27.40
2019-05-18T05:29:58.022Z,26.93
2019-05-18T05:30:30.681Z,28.65
2019-05-18T05:31:03.632Z,27.73
2019-05-18T05:31:36.284Z,28.42
2019-05-18T05:32:08.923Z,29.18
2019-05-18T05:32:41.935Z,28.02
2019-05-18T05:33:14.993Z,28.40
2019-05-18T05:33:47.676Z,29.40
2019-05-18T05:34:20.400Z,29.48
2019-05-18T05:34:53.420Z,29.87
2019-05-18T05:35:26.391Z,29.00
2019-05-18T05:35:59.036Z,28.75
2019-05-18T05:36:31.878Z,28.25
2019-05-18T05:37:04.535Z,27.90
2019-05-18T05:37:37.536Z,28.30
2019-05-18T05:38:10.500Z,29.00
2019-05-18T05:38:43.171Z,30.88
2019-05-18T05:39:16.200Z,28.65
2019-05-18T05:39:48.944Z,29.60
2019-05-18T05:40:21.599Z,29.80
2019-05-18T05:40:54.273Z,28.85
2019-05-18T05:41:26.951Z,29.30
2019-05-18T05:41:59.607Z,27.32
2019-05-18T05:42:32.267Z,28.85
2019-05-18T05:43:04.927Z,30.43
2019-05-18T05:43:37.587Z,30.23
2019-05-18T05:44:10.242Z,32.53
2019-05-18T05:44:42.951Z,30.88
2019-05-18T05:45:15.690Z,31.30
2019-05-18T05:45:48.680Z,31.17
2019-05-18T05:46:21.331Z,29.20
2019-05-18T05:46:55.115Z,33.40
2019-05-18T05:47:27.810Z,34.18
2019-05-18T05:48:01.092Z,34.27
2019-05-18T05:48:33.734Z,30.82
2019-05-18T05:49:06.739Z,31.85
2019-05-18T05:49:39.670Z,31.85
2019-05-18T05:50:12.464Z,32.95
2019-05-18T05:50:45.442Z,30.80
2019-05-18T05:51:18.459Z,32.40
2019-05-18T05:51:51.584Z,33.50
2019-05-18T05:52:24.201Z,33.67
2019-05-18T05:52:56.853Z,34.92
2019-05-18T05:53:29.796Z,30.35
2019-05-18T05:54:02.758Z,29.57
2019-05-18T05:54:35.408Z,34.88
2019-05-18T05:55:09.554Z,30.75
2019-05-18T05:55:42.708Z,31.27
2019-05-18T05:56:15.359Z,35.52
2019-05-18T05:56:47.983Z,32.53
2019-05-18T05:57:20.611Z,31.80
2019-05-18T05:57:53.581Z,32.78
2019-05-18T05:58:26.332Z,34.30
2019-05-18T05:58:58.979Z,31.65
2019-05-18T05:59:31.951Z,32.45
2019-05-18T06:00:06.240Z,31.57
2019-05-18T06:00:38.871Z,32.40
2019-05-18T06:01:11.612Z,33.20
2019-05-18T06:01:44.631Z,32.30
2019-05-18T06:02:17.269Z,30.88
2019-05-18T06:02:49.917Z,32.70
2019-05-18T06:03:22.563Z,34.50
2019-05-18T06:03:55.198Z,31.50
2019-05-18T06:04:27.861Z,32.90
2019-05-18T06:05:00.487Z,32.30
2019-05-18T06:05:33.102Z,32.83
2019-05-18T06:06:05.748Z,33.38
2019-05-18T06:06:38.783Z,33.00
2019-05-18T06:07:11.436Z,32.93
2019-05-18T06:07:44.425Z,32.55
2019-05-18T06:08:17.064Z,34.73
2019-05-18T06:08:49.702Z,32.93
2019-05-18T06:09:22.725Z,32.53
2019-05-18T06:09:55.367Z,33.90
2019-05-18T06:10:28.367Z,33.20
2019-05-18T06:11:01.009Z,33.02
2019-05-18T06:11:33.659Z,30.50
2019-05-18T06:12:06.327Z,32.45
2019-05-18T06:12:38.962Z,32.28
2019-05-18T06:13:11.622Z,32.03
2019-05-18T06:13:44.261Z,33.63
2019-05-18T06:14:16.993Z,32.90
2019-05-18T06:14:49.640Z,33.33
2019-05-18T06:15:22.671Z,34.53
2019-05-18T06:15:55.652Z,32.00
2019-05-18T06:16:28.621Z,32.73
2019-05-18T06:17:01.277Z,32.60
2019-05-18T06:17:33.971Z,32.90
2019-05-18T06:18:06.606Z,33.75
2019-05-18T06:18:39.691Z,34.48
2019-05-18T06:19:12.667Z,31.45
2019-05-18T06:19:45.795Z,32.85
2019-05-18T06:20:18.799Z,32.93
2019-05-18T06:20:52.185Z,32.58
2019-05-18T06:21:25.304Z,32.93
2019-05-18T06:21:58.661Z,31.85
2019-05-18T06:22:31.884Z,32.08
2019-05-18T06:23:04.955Z,32.95
2019-05-18T06:23:37.610Z,32.73
2019-05-18T06:24:10.278Z,33.73
2019-05-18T06:24:43.422Z,34.48
2019-05-18T06:25:16.123Z,32.85
2019-05-18T06:25:49.129Z,32.88
2019-05-18T06:26:24.200Z,32.15
2019-05-18T06:26:56.535Z,33.92
2019-05-18T06:27:29.188Z,32.95
2019-05-18T06:28:01.889Z,35.15
2019-05-18T06:28:34.942Z,35.73
2019-05-18T06:29:07.615Z,32.65
2019-05-18T06:29:40.288Z,33.30
2019-05-18T06:30:13.489Z,33.33
2019-05-18T06:30:46.127Z,34.35
2019-05-18T06:31:19.157Z,32.53
2019-05-18T06:31:52.177Z,32.58
2019-05-18T06:32:24.823Z,32.85
2019-05-18T06:32:58.525Z,33.58
2019-05-18T06:33:31.523Z,32.90
2019-05-18T06:34:04.547Z,33.85
2019-05-18T06:34:37.491Z,31.42
2019-05-18T06:35:11.239Z,31.82
2019-05-18T06:35:44.211Z,32.55
2019-05-18T06:36:16.848Z,32.65
2019-05-18T06:36:49.856Z,32.55
2019-05-18T06:37:22.486Z,32.50
2019-05-18T06:37:55.527Z,31.40
2019-05-18T06:38:28.511Z,33.55
2019-05-18T06:39:01.149Z,32.30
2019-05-18T06:39:33.814Z,31.30
2019-05-18T06:40:07.094Z,32.13
2019-05-18T06:40:39.731Z,35.40
2019-05-18T06:41:12.742Z,34.60
2019-05-18T06:41:45.686Z,33.30
2019-05-18T06:42:18.803Z,35.85
2019-05-18T06:42:51.489Z,34.53
2019-05-18T06:43:24.102Z,32.28
2019-05-18T06:43:58.495Z,33.28
2019-05-18T06:44:31.173Z,33.80
2019-05-18T06:45:05.066Z,33.33
2019-05-18T06:45:37.699Z,32.65
2019-05-18T06:46:10.598Z,32.40
2019-05-18T06:46:43.241Z,31.15
2019-05-18T06:47:15.870Z,31.45
2019-05-18T06:47:48.890Z,32.20
2019-05-18T06:48:21.827Z,34.15
2019-05-18T06:48:54.448Z,32.25
2019-05-18T06:49:27.097Z,35.80
2019-05-18T06:50:00.120Z,34.53
2019-05-18T06:50:32.776Z,33.02
2019-05-18T06:51:07.513Z,33.63
2019-05-18T06:51:40.219Z,31.80
2019-05-18T06:52:12.949Z,33.75
2019-05-18T06:52:45.977Z,33.45
2019-05-18T06:53:19.848Z,33.83
2019-05-18T06:53:53.459Z,34.95
2019-05-18T06:54:26.409Z,33.38
2019-05-18T06:54:59.059Z,33.48
2019-05-18T06:55:32.377Z,33.33
2019-05-18T06:56:05.746Z,33.95
2019-05-18T06:56:38.831Z,34.23
2019-05-18T06:57:12.617Z,32.13
2019-05-18T06:57:46.106Z,33.65
2019-05-18T06:58:20.078Z,32.90
2019-05-18T06:58:53.758Z,32.50
2019-05-18T06:59:27.183Z,34.25
2019-05-18T07:00:00.716Z,30.00
2019-05-18T07:00:33.351Z,33.45
2019-05-18T07:01:06.037Z,32.25
2019-05-18T07:01:39.006Z,33.53
2019-05-18T07:02:11.948Z,33.05
2019-05-18T07:02:44.883Z,33.92
2019-05-18T07:03:17.591Z,34.75
2019-05-18T07:03:50.489Z,33.08
2019-05-18T07:04:23.475Z,34.13